Time;durP1;ratioP1;P1;durP2;ratioP2;P2;SDS_P1;SDS_P2;PMS_P1;PMS_P2;Temp;Humidity;BMP_temperature;BMP_pressure;BME280_temperature;BME280_humidity;BME280_pressure;Samples;Min_cycle;Max_cycle;Signal;HPM_P1;HPM_P2
2022/07/29 00:00:34;;;;;;;;;7.75;7.00;;;;;23.09;34.15;101190.25;5079116;27;45396;-54
2022/07/29 00:02:59;;;;;;;;;8.00;6.50;;;;;23.06;33.91;101181.72;5079401;27;45277;-56
2022/07/29 00:05:25;;;;;;;;;6.25;5.00;;;;;23.01;33.90;101187.81;5079321;28;45217;-56
2022/07/29 00:07:50;;;;;;;;;9.00;7.25;;;;;22.91;33.97;101171.97;5077589;27;47131;-54
2022/07/29 00:10:15;;;;;;;;;7.25;6.25;;;;;22.93;34.00;101174.50;5079209;27;45171;-54
2022/07/29 00:12:41;;;;;;;;;5.00;5.00;;;;;22.72;34.11;101142.25;5079066;27;45264;-54
2022/07/29 00:15:06;;;;;;;;;6.50;6.50;;;;;22.84;34.02;101171.19;5079349;27;45306;-54
2022/07/29 00:17:33;;;;;;;;;4.75;4.75;;;;;22.81;34.32;101168.06;5078613;27;45975;-55
2022/07/29 00:19:59;;;;;;;;;7.75;6.75;;;;;22.75;35.06;101158.06;5078756;27;45311;-54
2022/07/29 00:22:24;;;;;;;;;7.00;7.00;;;;;22.63;34.80;101145.22;5078904;27;45307;-54
2022/07/29 00:24:50;;;;;;;;;8.00;5.50;;;;;22.71;34.67;101154.13;5077486;28;45500;-55
2022/07/29 00:27:16;;;;;;;;;7.00;5.50;;;;;22.58;34.89;101131.44;5078751;27;45331;-54
2022/07/29 00:29:42;;;;;;;;;6.00;6.00;;;;;22.66;35.45;101141.22;5078614;28;45230;-55
2022/07/29 00:32:07;;;;;;;;;7.00;6.50;;;;;22.65;35.15;101144.97;5078782;27;45265;-56
2022/07/29 00:37:16;;;;;;;;;5.00;5.00;;;;;22.62;35.58;101140.81;5078348;28;45745;-54
2022/07/29 00:39:42;;;;;;;;;7.50;7.00;;;;;22.50;35.17;101111.88;5078508;27;45254;-57
2022/07/29 00:42:07;;;;;;;;;8.25;6.50;;;;;22.63;35.68;101145.22;5077086;27;45284;-55
2022/07/29 00:44:40;;;;;;;;;8.00;7.00;;;;;22.54;35.46;101129.38;5077448;27;45463;-54
2022/07/29 00:47:06;;;;;;;;;8.00;7.75;;;;;22.61;35.47;101141.88;5078537;27;45411;-55
2022/07/29 00:49:32;;;;;;;;;10.25;8.75;;;;;22.47;35.79;101121.31;5078293;27;45459;-57
2022/07/29 00:51:57;;;;;;;;;8.00;8.00;;;;;22.57;35.99;101139.81;5078599;27;45294;-56
2022/07/29 00:54:23;;;;;;;;;6.00;6.00;;;;;22.56;35.87;101143.56;5078680;27;45396;-54
2022/07/29 00:56:49;;;;;;;;;6.00;6.00;;;;;22.54;36.00;101135.63;5078217;27;46980;-53
2022/07/29 00:59:14;;;;;;;;;7.75;6.75;;;;;22.37;36.20;101112.78;5078266;27;45430;-56
2022/07/29 01:01:40;;;;;;;;;8.75;8.75;;;;;22.52;36.17;101135.03;5078214;27;45459;-57
2022/07/29 01:04:06;;;;;;;;;8.00;8.00;;;;;22.46;36.34;101126.91;5094099;27;45502;-53
2022/07/29 01:06:33;;;;;;;;;8.75;7.00;;;;;22.50;36.33;101133.56;5078043;28;47521;-54
2022/07/29 01:09:00;;;;;;;;;8.00;7.25;;;;;22.49;36.18;101137.34;5078077;27;45371;-56
2022/07/29 01:11:25;;;;;;;;;7.25;7.25;;;;;22.52;36.54;101131.50;5078087;27;45400;-53
2022/07/29 01:13:52;;;;;;;;;9.50;8.50;;;;;22.51;36.27;101132.56;5078609;27;45437;-62
2022/07/29 01:16:29;;;;;;;;;8.50;8.50;;;;;22.50;36.44;101134.44;5077702;27;47365;-54
2022/07/29 01:19:00;;;;;;;;;7.50;7.50;;;;;22.47;36.90;101128.63;5078193;28;45357;-54
2022/07/29 01:21:49;;;;;;;;;9.25;7.25;;;;;22.47;36.82;101131.31;5078113;27;45388;-55
2022/07/29 01:24:48;;;;;;;;;9.25;8.75;;;;;22.44;36.56;101138.00;5078276;27;45379;-55
2022/07/29 01:27:41;;;;;;;;;8.50;7.00;;;;;22.39;36.73;101140.53;5078994;28;45450;-61
2022/07/29 01:30:07;;;;;;;;;10.75;6.50;;;;;22.34;36.77;101137.63;5077961;27;45402;-60
2022/07/29 01:32:36;;;;;;;;;8.00;7.00;;;;;22.37;37.02;101146.13;5077155;27;45397;-60
2022/07/29 01:35:06;;;;;;;;;10.50;8.00;;;;;22.34;36.68;101140.34;5078052;27;45340;-63
2022/07/29 01:37:55;;;;;;;;;9.50;6.50;;;;;22.40;36.52;101150.31;5077759;27;46237;-59
2022/07/29 01:40:30;;;;;;;;;8.00;6.75;;;;;22.38;37.30;101147.81;5077601;27;45375;-61
2022/07/29 01:42:59;;;;;;;;;9.75;6.50;;;;;22.37;37.14;101145.31;5077491;28;45305;-56
2022/07/29 01:45:38;;;;;;;;;6.00;6.00;;;;;22.39;37.10;101149.47;5077917;27;45537;-61
2022/07/29 01:48:13;;;;;;;;;7.00;6.25;;;;;22.40;36.79;101150.31;5077701;27;45467;-60
2022/07/29 01:50:57;;;;;;;;;6.50;5.50;;;;;22.37;36.59;101145.31;5077408;27;45381;-59
2022/07/29 01:53:32;;;;;;;;;6.50;5.75;;;;;22.36;37.04;101140.94;5077807;27;45410;-56
2022/07/29 01:56:01;;;;;;;;;6.50;5.00;;;;;22.30;37.31;101139.09;5077734;27;45992;-56
2022/07/29 01:58:29;;;;;;;;;7.75;6.00;;;;;22.32;37.23;101155.97;5076982;28;46203;-55
2022/07/29 02:00:57;;;;;;;;;9.75;7.50;;;;;22.29;37.49;101159.09;5076954;28;45356;-56
2022/07/29 02:03:23;;;;;;;;;8.00;6.75;;;;;22.28;38.11;101162.88;5077559;28;45461;-63
2022/07/29 02:05:51;;;;;;;;;7.75;7.00;;;;;21.90;37.74;101093.13;5077476;27;45307;-61
2022/07/29 02:08:19;;;;;;;;;9.25;7.00;;;;;22.21;37.89;101140.41;5077251;28;46506;-62
2022/07/29 02:10:47;;;;;;;;;7.25;7.25;;;;;22.23;38.21;101138.28;5077127;27;45369;-63
2022/07/29 02:13:15;;;;;;;;;9.75;7.25;;;;;22.23;37.85;101146.41;5076983;28;45433;-61
2022/07/29 02:15:43;;;;;;;;;11.50;9.00;;;;;22.17;38.01;101148.94;5077601;27;45478;-60
2022/07/29 02:18:14;;;;;;;;;9.00;7.75;;;;;22.20;38.14;101155.78;5076795;27;46270;-57
2022/07/29 02:20:44;;;;;;;;;8.00;8.00;;;;;22.18;38.51;101152.47;5076928;27;45374;-57
2022/07/29 02:23:11;;;;;;;;;7.00;6.75;;;;;22.15;38.48;101153.72;5077240;27;45310;-56
2022/07/29 02:25:37;;;;;;;;;8.00;6.00;;;;;22.15;38.53;101153.72;5077354;28;45386;-55
2022/07/29 02:28:05;;;;;;;;;7.25;7.25;;;;;22.14;38.59;101148.53;5076701;27;45410;-57
2022/07/29 02:30:31;;;;;;;;;8.75;8.00;;;;;22.13;38.77;101157.72;5077014;27;45257;-56
2022/07/29 02:32:58;;;;;;;;;6.75;6.75;;;;;22.09;38.56;101149.16;5076953;27;45365;-54
2022/07/29 02:35:24;;;;;;;;;9.00;8.00;;;;;22.08;39.33;101154.75;5076885;27;45319;-57
2022/07/29 02:40:38;;;;;;;;;10.75;7.50;;;;;22.04;39.49;101151.66;5076620;27;45480;-59
2022/07/29 02:43:05;;;;;;;;;9.25;8.00;;;;;22.04;39.14;101154.38;5076777;27;45343;-59
2022/07/29 02:45:32;;;;;;;;;7.75;7.75;;;;;22.03;39.34;101162.69;5080634;27;45413;-63
2022/07/29 02:48:00;;;;;;;;;7.25;7.25;;;;;22.03;39.29;101159.97;5080152;27;46084;-59
2022/07/29 02:50:38;;;;;;;;;7.25;7.25;;;;;22.02;39.13;101167.28;5080252;27;45188;-59
2022/07/29 02:53:16;;;;;;;;;7.00;6.00;;;;;22.00;38.89;101161.25;5080352;27;45354;-55
2022/07/29 02:55:48;;;;;;;;;7.50;7.50;;;;;21.97;39.43;101158.13;5080549;27;45355;-62
2022/07/29 02:58:31;;;;;;;;;8.00;6.75;;;;;21.97;39.45;101153.53;5079866;27;46105;-62
2022/07/29 03:01:20;;;;;;;;;10.50;7.75;;;;;21.96;39.18;101153.78;5079795;28;45486;-57
2022/07/29 03:03:48;;;;;;;;;7.00;7.00;;;;;21.96;39.12;101164.59;5080119;27;45503;-61
2022/07/29 03:06:15;;;;;;;;;11.00;8.75;;;;;21.90;39.46;101152.72;5080112;27;45358;-54
2022/07/29 03:08:42;;;;;;;;;6.25;6.25;;;;;21.90;39.32;101158.97;5079664;27;47346;-60
2022/07/29 03:11:08;;;;;;;;;7.25;7.25;;;;;21.92;39.25;101167.72;5080059;27;45483;-57
2022/07/29 03:13:35;;;;;;;;;7.50;7.00;;;;;21.91;39.45;101168.78;5079994;27;45527;-58
2022/07/29 03:16:01;;;;;;;;;10.75;8.00;;;;;21.79;39.41;101156.09;5080033;27;45396;-60
2022/07/29 03:18:27;;;;;;;;;9.50;9.00;;;;;21.88;39.32;101174.59;5079831;27;45349;-63
2022/07/29 03:20:52;;;;;;;;;6.25;6.25;;;;;21.88;39.04;101176.50;5079815;27;45284;-62
2022/07/29 03:23:19;;;;;;;;;8.00;6.00;;;;;21.85;39.35;101176.91;5079973;28;45221;-62
2022/07/29 03:25:45;;;;;;;;;7.75;7.50;;;;;21.84;39.26;101172.53;5080213;27;45397;-60
2022/07/29 03:28:11;;;;;;;;;8.75;7.25;;;;;21.83;38.92;101170.88;5079404;27;46302;-61
2022/07/29 03:30:36;;;;;;;;;6.50;5.75;;;;;21.78;38.73;101176.91;5079504;27;45287;-61
2022/07/29 03:33:01;;;;;;;;;6.00;6.00;;;;;21.82;39.22;101177.31;5080136;27;45914;-62
2022/07/29 03:35:27;;;;;;;;;8.00;6.75;;;;;21.80;38.54;101174.00;5079619;27;45404;-54
2022/07/29 03:37:52;;;;;;;;;6.25;6.25;;;;;21.78;38.82;101168.78;5079464;27;45326;-60
2022/07/29 03:40:52;;;;;;;;;8.75;5.00;;;;;21.76;38.42;101172.75;5079499;28;45388;-57
2022/07/29 03:43:19;;;;;;;;;7.00;6.00;;;;;21.73;38.71;101168.56;5071972;27;45463;-61
2022/07/29 03:45:48;;;;;;;;;8.00;6.00;;;;;21.72;38.55;101177.75;5079565;28;45408;-65
2022/07/29 03:48:17;;;;;;;;;9.75;6.50;;;;;21.71;38.47;101176.09;5079008;27;46998;-63
2022/07/29 03:50:43;;;;;;;;;5.00;5.00;;;;;21.70;38.73;101177.16;5079306;27;45419;-61
2022/07/29 03:53:08;;;;;;;;;12.00;8.67;;;;;21.68;38.86;101174.63;5079140;27;45331;-63
2022/07/29 03:55:40;;;;;;;;;7.25;7.00;;;;;21.67;38.25;101178.38;5079086;28;45428;-57
2022/07/29 03:58:07;;;;;;;;;6.00;5.25;;;;;21.62;38.19;101171.94;5079071;27;46496;-57
2022/07/29 04:00:35;;;;;;;;;6.00;6.00;;;;;21.66;38.59;101181.31;5078978;27;45450;-61
2022/07/29 04:03:01;;;;;;;;;7.25;6.75;;;;;21.66;38.32;101184.84;5079185;27;45407;-61
2022/07/29 04:05:27;;;;;;;;;6.25;6.25;;;;;21.66;38.45;101184.00;5079174;28;45395;-56
2022/07/29 04:07:52;;;;;;;;;9.00;7.75;;;;;21.65;38.39;101185.88;5078758;27;45990;-57
2022/07/29 04:10:22;;;;;;;;;9.75;7.75;;;;;21.65;38.18;101190.44;5079213;27;45423;-62
2022/07/29 04:12:48;;;;;;;;;6.75;6.75;;;;;21.61;38.66;101195.44;5078785;27;45224;-57
2022/07/29 04:15:14;;;;;;;;;8.75;8.00;;;;;21.63;38.74;101182.56;5077694;28;45440;-56
2022/07/29 04:17:39;;;;;;;;;7.75;6.75;;;;;21.66;38.91;101198.38;5078629;27;46743;-60
2022/07/29 04:20:05;;;;;;;;;8.00;8.00;;;;;21.53;38.88;101165.91;5078680;27;45226;-57
2022/07/29 04:22:30;;;;;;;;;8.25;7.75;;;;;21.65;38.31;101179.63;5078756;27;45389;-63
2022/07/29 04:24:56;;;;;;;;;8.00;8.00;;;;;21.68;38.58;101188.16;5079146;27;45211;-57
2022/07/29 04:27:21;;;;;;;;;6.00;6.00;;;;;21.55;38.99;101163.81;5078561;28;47125;-54
2022/07/29 04:29:47;;;;;;;;;6.75;6.75;;;;;21.64;38.98;101184.22;5078507;27;45529;-59
2022/07/29 04:32:12;;;;;;;;;7.50;7.00;;;;;21.68;38.74;101190.88;5078877;27;45439;-59
2022/07/29 04:34:37;;;;;;;;;8.75;7.00;;;;;21.68;39.16;101201.69;5078799;28;45351;-59
2022/07/29 04:37:03;;;;;;;;;9.50;7.00;;;;;21.68;38.52;101200.88;5078472;27;46048;-57
2022/07/29 04:39:28;;;;;;;;;7.25;7.00;;;;;21.66;38.87;101194.84;5078487;27;45332;-60
2022/07/29 04:41:54;;;;;;;;;7.75;7.75;;;;;21.64;38.80;101186.91;5078419;27;45421;-55
2022/07/29 04:44:19;;;;;;;;;8.75;7.75;;;;;21.71;38.52;101195.03;5078678;27;45482;-60
2022/07/29 04:46:45;;;;;;;;;10.50;6.00;;;;;21.68;39.05;101198.16;5078518;27;47261;-60
2022/07/29 04:49:10;;;;;;;;;7.50;7.00;;;;;21.72;38.84;101204.81;5078412;27;45369;-63
2022/07/29 04:51:35;;;;;;;;;6.75;6.25;;;;;21.70;38.80;101201.50;5078733;28;45454;-55
2022/07/29 04:54:01;;;;;;;;;9.00;8.00;;;;;21.75;39.19;101200.88;5077607;28;45349;-54
2022/07/29 04:56:27;;;;;;;;;10.25;7.25;;;;;21.78;39.12;101206.69;5078170;27;47044;-57
2022/07/29 04:58:53;;;;;;;;;6.75;6.75;;;;;21.82;38.99;101207.09;5078119;28;45947;-55
2022/07/29 05:01:18;;;;;;;;;8.00;8.00;;;;;21.90;38.79;101204.19;5078289;27;45535;-54
2022/07/29 05:03:44;;;;;;;;;9.50;7.00;;;;;21.97;39.08;101198.78;5078643;28;45326;-64
2022/07/29 05:06:10;;;;;;;;;9.00;7.00;;;;;22.06;39.53;101201.03;5077039;27;46248;-60
2022/07/29 05:08:35;;;;;;;;;9.00;9.00;;;;;22.14;39.64;101200.84;5077819;27;45221;-56
2022/07/29 05:11:01;;;;;;;;;8.00;8.00;;;;;22.21;39.40;101200.84;5078130;27;45620;-54
2022/07/29 05:13:26;;;;;;;;;10.00;8.50;;;;;22.34;39.33;101200.81;5076669;28;45450;-62
2022/07/29 05:15:51;;;;;;;;;8.50;8.50;;;;;22.42;39.39;101199.75;5076487;27;46117;-55
2022/07/29 05:18:17;;;;;;;;;14.25;10.00;;;;;22.49;38.89;101197.81;5077934;27;45271;-55
2022/07/29 05:20:42;;;;;;;;;9.00;9.00;;;;;22.58;38.72;101191.09;5077986;27;45398;-55
2022/07/29 05:23:07;;;;;;;;;9.00;8.50;;;;;22.65;38.63;101196.50;5078289;27;45360;-56
2022/07/29 05:25:33;;;;;;;;;10.75;8.00;;;;;22.71;38.76;101201.06;5077540;28;46140;-57
2022/07/29 05:27:58;;;;;;;;;15.25;10.00;;;;;22.67;38.50;101189.84;5077953;27;45383;-57
2022/07/29 05:30:24;;;;;;;;;11.25;10.25;;;;;22.77;38.75;101194.78;5077505;27;45366;-57
2022/07/29 05:32:49;;;;;;;;;13.00;11.00;;;;;22.81;38.62;101200.63;5077849;27;45410;-56
2022/07/29 05:35:15;;;;;;;;;12.00;10.00;;;;;22.84;38.64;101201.03;5077363;27;47030;-55
2022/07/29 05:37:41;;;;;;;;;11.00;9.00;;;;;22.82;38.31;101197.69;5077420;27;45349;-55
2022/07/29 05:40:08;;;;;;;;;10.25;9.00;;;;;22.87;38.16;101203.28;5077767;27;45355;-57
2022/07/29 05:42:34;;;;;;;;;14.00;11.00;;;;;22.87;38.57;101197.03;5077617;27;45475;-55
2022/07/29 05:45:00;;;;;;;;;12.50;11.50;;;;;22.89;38.67;101206.63;5077252;27;45429;-55
2022/07/29 05:47:26;;;;;;;;;11.25;10.00;;;;;22.83;38.54;101199.34;5077374;27;45324;-55
2022/07/29 05:49:52;;;;;;;;;7.25;7.25;;;;;22.91;38.49;101206.44;5077582;27;45943;-57
2022/07/29 05:52:18;;;;;;;;;10.00;8.00;;;;;22.92;38.92;101216.22;5077974;27;45255;-55
2022/07/29 05:54:43;;;;;;;;;8.00;7.00;;;;;22.89;38.17;101216.66;5077289;27;46924;-62
2022/07/29 05:57:18;;;;;;;;;12.50;7.75;;;;;22.94;37.77;101222.28;5077341;27;45300;-58
2022/07/29 05:59:45;;;;;;;;;9.75;6.25;;;;;22.99;37.66;101217.03;5077299;27;45253;-56
2022/07/29 06:02:11;;;;;;;;;9.00;6.50;;;;;23.02;37.49;101216.59;5077496;27;45623;-55
2022/07/29 06:04:36;;;;;;;;;7.25;7.25;;;;;23.10;37.62;101227.19;5075816;28;46918;-56
2022/07/29 06:07:01;;;;;;;;;7.50;7.50;;;;;23.17;37.26;101229.84;5077341;27;45246;-56
2022/07/29 06:09:27;;;;;;;;;7.50;7.00;;;;;23.26;37.34;101225.84;5077172;27;45521;-57
2022/07/29 06:11:52;;;;;;;;;7.75;7.75;;;;;23.30;37.33;101220.78;5077358;28;45462;-56
2022/07/29 06:14:18;;;;;;;;;8.75;8.75;;;;;23.04;37.25;101170.25;5075493;28;45880;-60
2022/07/29 06:16:43;;;;;;;;;7.00;7.00;;;;;23.49;37.01;101238.00;5076886;27;45229;-56
2022/07/29 06:19:09;;;;;;;;;9.50;8.00;;;;;23.57;36.77;101233.16;5076807;28;45387;-63
2022/07/29 06:21:34;;;;;;;;;9.75;8.25;;;;;23.65;36.50;101240.22;5077055;28;45287;-55
2022/07/29 06:23:59;;;;;;;;;11.50;10.00;;;;;23.76;36.69;101233.22;5076958;27;47260;-59
2022/07/29 06:26:25;;;;;;;;;13.75;9.00;;;;;23.89;36.34;101233.09;5076842;28;45197;-54
2022/07/29 06:28:50;;;;;;;;;9.75;6.75;;;;;23.96;36.02;101230.34;5077175;28;45949;-61
2022/07/29 06:31:15;;;;;;;;;7.25;7.00;;;;;24.14;35.75;101235.78;5077130;27;45345;-58
2022/07/29 06:33:41;;;;;;;;;7.00;7.00;;;;;24.29;35.46;101240.88;5076678;27;45430;-58
2022/07/29 06:36:06;;;;;;;;;8.00;7.25;;;;;24.41;35.17;101241.84;5076763;27;45477;-56
2022/07/29 06:38:33;;;;;;;;;9.25;9.25;;;;;24.52;34.67;101242.94;5076830;28;45211;-54
2022/07/29 06:41:09;;;;;;;;;12.25;8.50;;;;;24.60;34.67;101238.03;5077181;27;45439;-56
2022/07/29 06:43:37;;;;;;;;;11.50;6.00;;;;;24.74;34.58;101240.63;5076652;27;45478;-57
2022/07/29 06:46:08;;;;;;;;;7.60;7.20;;;;;24.86;34.01;101241.47;5076602;27;45511;-57
2022/07/29 06:48:35;;;;;;;;;10.25;8.25;;;;;24.98;34.09;101242.38;5076751;27;45383;-63
2022/07/29 06:51:02;;;;;;;;;7.25;7.25;;;;;24.99;33.91;101235.03;5076878;27;45379;-62
2022/07/29 06:53:28;;;;;;;;;7.50;7.50;;;;;25.23;34.14;101239.53;5076684;27;45286;-56
2022/07/29 06:55:54;;;;;;;;;7.20;6.00;;;;;25.42;33.39;101247.66;5076503;27;45368;-64
2022/07/29 06:58:20;;;;;;;;;8.00;8.00;;;;;25.62;33.00;101245.47;5076892;27;45427;-63
2022/07/29 07:00:46;;;;;;;;;8.50;7.00;;;;;25.83;33.13;101246.81;5076853;27;45394;-61
2022/07/29 07:03:12;;;;;;;;;13.00;8.00;;;;;26.07;32.73;101245.75;5076629;27;45434;-65
2022/07/29 07:05:37;;;;;;;;;9.00;8.50;;;;;26.39;32.07;101248.13;5077870;27;45659;-60
2022/07/29 07:08:03;;;;;;;;;13.25;7.00;;;;;26.83;32.18;101253.97;5076446;27;45368;-66
2022/07/29 07:10:29;;;;;;;;;15.75;12.75;;;;;27.22;31.43;101249.59;5076911;27;45387;-64
2022/07/29 07:12:54;;;;;;;;;10.00;8.00;;;;;27.56;31.13;101255.09;5075146;28;46567;-63
2022/07/29 07:15:21;;;;;;;;;9.00;9.00;;;;;27.80;31.08;101229.25;5076252;27;45393;-65
2022/07/29 07:17:50;;;;;;;;;11.60;9.40;;;;;28.34;30.46;101259.59;5076324;27;45342;-55
2022/07/29 07:20:16;;;;;;;;;9.60;7.60;;;;;28.64;29.15;101239.22;5076412;27;45387;-66
2022/07/29 07:22:42;;;;;;;;;11.80;11.00;;;;;29.17;28.92;101259.59;5076212;27;45434;-61
2022/07/29 07:25:07;;;;;;;;;9.00;9.00;;;;;29.61;28.74;101256.72;5076180;28;45166;-62
2022/07/29 07:27:33;;;;;;;;;11.00;8.00;;;;;30.16;27.30;101260.19;5074974;28;45473;-65
2022/07/29 07:29:58;;;;;;;;;8.25;8.00;;;;;30.68;26.76;101251.94;5077648;28;45376;-66
2022/07/29 07:32:23;;;;;;;;;12.50;9.50;;;;;31.21;26.62;101249.91;5079331;27;45914;-60
2022/07/29 07:34:49;;;;;;;;;14.25;11.25;;;;;32.11;25.48;101265.06;5079355;27;45423;-62
2022/07/29 07:37:14;;;;;;;;;10.75;9.50;;;;;33.86;23.92;101253.69;5079575;28;45856;-62
2022/07/29 07:39:40;;;;;;;;;10.00;8.75;;;;;35.66;21.91;101262.19;5079609;27;45440;-63
2022/07/29 07:42:06;;;;;;;;;8.20;8.20;;;;;36.54;20.59;101267.78;5079345;27;47250;-64
2022/07/29 07:44:31;;;;;;;;;10.00;10.00;;;;;38.21;19.39;101261.28;5079527;27;45352;-63
2022/07/29 07:46:57;;;;;;;;;11.25;9.50;;;;;39.29;17.81;101262.53;5079590;27;45595;-57
2022/07/29 07:49:22;;;;;;;;;11.75;9.25;;;;;40.64;16.73;101263.94;5078423;28;45455;-65
2022/07/29 07:51:48;;;;;;;;;10.50;7.00;;;;;42.07;15.44;101256.06;5079212;27;46146;-62
2022/07/29 07:54:13;;;;;;;;;8.50;7.25;;;;;43.17;15.21;101259.94;5079556;27;45221;-65
2022/07/29 07:56:38;;;;;;;;;8.00;6.25;;;;;44.22;14.66;101266.00;5079381;27;45371;-65
2022/07/29 07:59:04;;;;;;;;;9.00;9.00;;;;;44.57;14.56;101257.63;5079517;28;45356;-64
2022/07/29 08:01:29;;;;;;;;;16.25;10.00;;;;;45.35;13.55;101248.47;5078918;27;45584;-60
2022/07/29 08:03:54;;;;;;;;;7.50;7.50;;;;;46.19;12.37;101262.50;5079070;28;45336;-60
2022/07/29 08:06:20;;;;;;;;;8.75;8.50;;;;;46.99;12.92;101259.63;5079116;27;45332;-61
2022/07/29 08:08:45;;;;;;;;;8.75;7.25;;;;;47.48;12.23;101258.59;5079305;27;45160;-60
2022/07/29 08:11:11;;;;;;;;;9.25;8.25;;;;;47.17;11.76;101262.66;5078920;27;45947;-61
2022/07/29 08:13:37;;;;;;;;;11.50;9.50;;;;;47.62;11.53;101263.53;5079051;27;45220;-62
2022/07/29 08:16:11;;;;;;;;;8.40;8.00;;;;;48.36;11.42;101265.41;5078946;27;45253;-62
2022/07/29 08:18:38;;;;;;;;;8.40;7.60;;;;;48.88;10.69;101274.63;5079066;28;45571;-59
2022/07/29 08:21:04;;;;;;;;;8.20;7.60;;;;;49.41;10.75;101271.19;5078532;27;45397;-57
2022/07/29 08:23:39;;;;;;;;;8.00;8.00;;;;;49.74;10.84;101261.56;5078871;27;45457;-63
2022/07/29 08:26:13;;;;;;;;;10.00;6.20;;;;;50.07;9.82;101265.22;5077430;27;45302;-60
2022/07/29 08:28:40;;;;;;;;;8.00;7.00;;;;;50.42;9.76;101264.38;5079085;27;45316;-61
2022/07/29 08:31:06;;;;;;;;;7.40;5.00;;;;;50.79;9.63;101263.06;5078420;27;46052;-61
2022/07/29 08:33:32;;;;;;;;;6.00;6.00;;;;;51.14;10.50;101267.75;5078625;27;45379;-56
2022/07/29 08:35:58;;;;;;;;;11.40;7.00;;;;;51.26;10.10;101253.16;5078418;27;45270;-62
2022/07/29 08:38:25;;;;;;;;;6.75;5.50;;;;;51.51;9.30;101263.50;5078883;27;45405;-62
2022/07/29 08:40:52;;;;;;;;;7.40;6.20;;;;;50.73;8.69;101273.19;5077580;27;45400;-61
2022/07/29 08:43:19;;;;;;;;;9.60;6.60;;;;;50.20;8.98;101271.31;5078518;27;45607;-61
2022/07/29 08:45:50;;;;;;;;;5.80;5.80;;;;;49.62;9.67;101267.63;5078513;27;45454;-58
2022/07/29 08:48:19;;;;;;;;;5.80;4.40;;;;;48.99;9.93;101266.19;5078669;27;45468;-62
2022/07/29 08:50:47;;;;;;;;;6.60;5.20;;;;;48.86;10.05;101274.22;5078720;27;45408;-57
2022/07/29 08:53:15;;;;;;;;;5.80;5.00;;;;;49.83;9.91;101270.47;5079061;27;45265;-62
2022/07/29 08:55:46;;;;;;;;;5.00;5.00;;;;;50.65;9.60;101270.38;5078850;27;45351;-59
2022/07/29 08:58:13;;;;;;;;;4.60;4.60;;;;;51.77;9.51;101277.09;5078601;27;45411;-58
2022/07/29 09:00:42;;;;;;;;;5.20;4.20;;;;;52.20;8.37;101270.25;5078279;27;45330;-56
2022/07/29 09:03:11;;;;;;;;;3.40;3.40;;;;;51.12;7.98;101265.34;5078668;27;45185;-56
2022/07/29 09:05:37;;;;;;;;;6.60;6.00;;;;;50.40;9.15;101263.94;5078472;27;45449;-59
2022/07/29 09:08:04;;;;;;;;;5.60;5.60;;;;;50.16;9.40;101265.59;5078386;27;45312;-55
2022/07/29 09:10:29;;;;;;;;;6.60;5.60;;;;;50.51;9.01;101259.06;5078076;27;46183;-55
2022/07/29 09:12:55;;;;;;;;;3.75;3.75;;;;;51.43;8.28;101265.59;5078244;27;45387;-56
2022/07/29 09:15:20;;;;;;;;;4.00;4.00;;;;;51.83;7.93;101252.72;5078366;27;45284;-55
2022/07/29 09:17:48;;;;;;;;;5.00;5.00;;;;;51.46;8.50;101261.94;5078296;27;45348;-58
2022/07/29 09:20:24;;;;;;;;;3.40;3.40;;;;;50.54;10.15;101266.78;5077920;27;47035;-57
2022/07/29 09:22:52;;;;;;;;;5.00;3.20;;;;;51.42;8.68;101263.19;5077933;27;45415;-59
2022/07/29 09:25:38;;;;;;;;;4.00;4.00;;;;;52.21;8.32;101263.34;5078262;27;45327;-56
2022/07/29 09:28:10;;;;;;;;;4.20;2.20;;;;;52.81;7.48;101267.59;5078561;27;45330;-62
2022/07/29 09:30:49;;;;;;;;;1.40;1.40;;;;;53.59;6.87;101263.66;5077664;28;46194;-63
2022/07/29 09:33:15;;;;;;;;;5.40;3.80;;;;;54.16;6.49;101255.38;5077859;27;45351;-62
2022/07/29 09:35:40;;;;;;;;;2.25;2.25;;;;;54.45;7.57;101253.59;5077897;27;45491;-63
2022/07/29 09:38:13;;;;;;;;;4.00;3.75;;;;;54.78;7.07;101260.22;5078141;27;45311;-64
2022/07/29 09:40:39;;;;;;;;;6.20;4.20;;;;;55.27;6.74;101260.41;5077577;27;46221;-58
2022/07/29 09:43:11;;;;;;;;;2.00;2.00;;;;;55.72;6.90;101267.47;5077604;27;45357;-59
2022/07/29 09:45:37;;;;;;;;;4.00;3.00;;;;;56.09;6.57;101271.81;5077817;27;45289;-58
2022/07/29 09:48:21;;;;;;;;;0.80;0.80;;;;;56.12;6.27;101261.56;5077899;28;45536;-59
2022/07/29 09:50:49;;;;;;;;;2.60;2.60;;;;;56.28;6.16;101270.09;5077453;28;46353;-57
2022/07/29 09:53:35;;;;;;;;;4.00;2.60;;;;;55.95;7.05;101275.84;5077035;27;45313;-57
2022/07/29 09:56:01;;;;;;;;;4.00;2.40;;;;;55.42;6.34;101266.56;5077532;27;45414;-59
2022/07/29 09:58:27;;;;;;;;;3.00;2.00;;;;;55.01;7.25;101262.19;5077786;27;45584;-58
2022/07/29 10:00:54;;;;;;;;;3.00;3.00;;;;;54.59;7.31;101268.81;5077166;28;46427;-60
2022/07/29 10:03:20;;;;;;;;;3.40;3.40;;;;;54.93;7.18;101255.06;5077429;28;45343;-56
2022/07/29 10:06:03;;;;;;;;;4.20;2.80;;;;;55.42;6.83;101260.88;5077555;27;45319;-58
2022/07/29 10:08:30;;;;;;;;;7.60;4.20;;;;;55.54;6.30;101256.50;5077448;28;45470;-60
2022/07/29 10:11:09;;;;;;;;;2.00;2.00;;;;;55.73;7.58;101260.50;5077222;27;47221;-58
2022/07/29 10:13:35;;;;;;;;;3.20;3.20;;;;;55.56;7.21;101262.56;5077220;27;45240;-61
2022/07/29 10:16:01;;;;;;;;;3.25;3.25;;;;;55.23;6.62;101261.72;5077021;28;45233;-59
2022/07/29 10:18:26;;;;;;;;;2.00;2.00;;;;;54.76;7.38;101262.72;5077446;27;45217;-63
2022/07/29 10:20:52;;;;;;;;;1.25;0.75;;;;;54.43;6.92;101256.06;5076890;27;47187;-59
2022/07/29 10:23:18;;;;;;;;;4.00;2.40;;;;;54.68;6.78;101261.28;5076922;27;46128;-63
2022/07/29 10:25:45;;;;;;;;;6.25;4.00;;;;;54.80;7.13;101262.66;5077296;27;45320;-61
2022/07/29 10:28:11;;;;;;;;;5.00;3.00;;;;;55.12;6.50;101263.97;5077229;27;45323;-57
2022/07/29 10:30:39;;;;;;;;;2.00;2.00;;;;;55.04;6.14;101260.50;5076713;27;47111;-56
2022/07/29 10:33:26;;;;;;;;;3.40;3.40;;;;;54.90;7.68;101253.06;5076929;27;45567;-62
2022/07/29 10:36:18;;;;;;;;;4.40;4.40;;;;;54.86;6.59;101260.09;5076791;28;45257;-61
2022/07/29 10:38:53;;;;;;;;;2.00;2.00;;;;;54.69;6.67;101270.63;5077345;28;45666;-60
2022/07/29 10:41:34;;;;;;;;;2.40;2.40;;;;;54.53;7.10;101272.19;5076820;27;46269;-59
2022/07/29 10:44:06;;;;;;;;;3.80;3.20;;;;;54.31;7.10;101262.41;5076840;27;45376;-62
2022/07/29 10:46:36;;;;;;;;;2.60;2.40;;;;;53.93;6.80;101271.22;5076763;27;45556;-58
2022/07/29 10:49:21;;;;;;;;;3.00;3.00;;;;;53.50;7.31;101265.41;5076978;28;45370;-60
2022/07/29 10:51:55;;;;;;;;;4.20;4.20;;;;;53.24;7.71;101264.19;5076639;28;45447;-58
2022/07/29 10:54:33;;;;;;;;;5.60;5.00;;;;;53.00;8.09;101261.25;5076495;27;45394;-62
2022/07/29 10:57:14;;;;;;;;;3.60;3.60;;;;;52.79;8.10;101270.81;5076890;28;45443;-62
2022/07/29 10:59:40;;;;;;;;;4.60;2.80;;;;;52.69;7.32;101262.47;5076850;27;45475;-60
2022/07/29 11:02:44;;;;;;;;;3.80;3.60;;;;;52.03;7.87;101264.31;5076471;27;45414;-59
2022/07/29 11:05:16;;;;;;;;;4.00;4.00;;;;;51.77;8.07;101264.94;5055456;28;45410;-62
2022/07/29 11:08:21;;;;;;;;;4.00;4.00;;;;;51.07;8.81;101260.09;5057729;28;45376;-61
2022/07/29 11:11:18;;;;;;;;;9.80;4.00;;;;;50.46;8.34;101265.16;4958694;28;45330;-63
2022/07/29 11:13:43;;;;;;;;;3.20;3.20;;;;;50.07;8.56;101257.53;4952833;28;45527;-58
2022/07/29 11:16:09;;;;;;;;;5.00;4.00;;;;;49.51;9.16;101236.50;4958372;28;45484;-57
2022/07/29 11:18:34;;;;;;;;;5.25;3.25;;;;;49.11;8.82;101263.00;4958255;28;45395;-58
2022/07/29 11:21:00;;;;;;;;;7.75;4.50;;;;;47.99;9.93;101253.03;4958467;28;45467;-58
2022/07/29 11:23:28;;;;;;;;;3.00;3.00;;;;;45.22;11.28;101259.88;4958463;28;45466;-57
2022/07/29 11:28:49;;;;;;;;;4.80;4.00;;;;;41.59;13.86;101254.81;4958222;28;45436;-57
2022/07/29 11:31:16;;;;;;;;;4.40;3.00;;;;;41.09;14.17;101266.09;4958249;28;45511;-55
2022/07/29 11:33:42;;;;;;;;;3.60;3.60;;;;;40.55;14.63;101266.78;4957824;28;45699;-56
2022/07/29 11:36:10;;;;;;;;;5.50;4.00;;;;;39.95;15.26;101264.22;4957677;28;45305;-57
2022/07/29 11:38:35;;;;;;;;;5.00;5.00;;;;;39.34;15.52;101267.94;4957814;28;45486;-55